Date,TemperatureHighF,TemperatureAvgF,TemperatureLowF,DewpointHighF,DewpointAvgF,DewpointLowF,HumidityHigh,HumidityAvg,HumidityLow,PressureMaxIn,PressureMinIn,WindSpeedMaxMPH,WindSpeedAvgMPH,GustSpeedMaxMPH,PrecipitationSumIn
2013-1-1,39.7,36.7,29.0,38.9,35.2,26.3,100,94,87,30.23,30.03,7,2,12,0.07
2013-1-2,36.2,29.3,25.1,26.2,23.2,20.3,90,79,54,30.32,30.21,7,1,10,0.00
2013-1-3,44.0,30.8,21.4,26.5,23.3,19.4,93,76,44,30.48,30.28,7,1,10,0.00
2013-1-4,46.4,31.7,21.0,29.7,24.3,19.0,94,76,44,30.53,30.43,8,1,12,0.00
2013-1-5,45.0,35.2,23.3,32.4,26.9,21.3,94,74,52,30.46,30.28,6,1,10,0.00
2013-1-6,48.9,37.3,25.4,37.1,31.2,22.8,94,80,52,30.43,30.22,11,2,16,0.00
2013-1-7,47.2,32.5,22.8,28.4,24.7,20.6,93,75,44,30.50,30.27,5,1,7,0.00
2013-1-8,56.2,42.5,26.6,39.3,33.0,23.0,93,71,48,30.35,30.23,8,1,12,0.00
2013-1-9,53.3,49.8,45.9,51.5,47.3,38.5,97,91,72,30.43,30.26,8,2,12,0.19
2013-1-10,65.9,58.0,49.4,61.5,56.4,48.3,100,95,84,30.40,29.91,11,3,22,0.49
2013-1-11,67.3,61.0,56.1,61.9,54.7,50.1,97,81,57,30.05,29.89,16,3,23,0.59
2013-1-12,69.6,66.8,63.5,65.2,63.6,60.6,97,90,82,29.99,29.78,12,3,21,0.01
2013-1-13,69.3,46.0,29.4,63.6,44.3,26.4,100,94,81,30.30,29.76,22,3,34,2.43
2013-1-14,30.7,28.6,25.8,26.6,24.3,21.9,89,84,75,30.46,30.30,12,4,17,0.00
2013-1-15,31.1,28.7,24.9,29.4,26.5,22.4,95,91,87,30.33,30.08,10,3,16,0.03
2013-1-16,32.3,31.1,29.8,30.7,29.8,28.4,96,95,92,30.20,30.08,4,0,5,0.00
2013-1-17,48.4,35.7,29.7,37.0,31.0,26.7,95,84,60,30.50,30.14,10,2,17,0.03
2013-1-18,49.7,35.7,23.1,30.5,26.5,21.6,96,72,40,30.62,30.39,6,1,9,0.00
2013-1-19,57.2,44.9,33.1,34.8,30.9,27.8,85,60,36,30.39,30.16,10,2,17,0.00
2013-1-20,54.7,42.1,32.4,35.7,28.4,19.0,93,61,37,30.30,30.19,7,1,12,0.00
2013-1-21,40.4,31.8,24.8,21.9,17.6,13.6,72,57,35,30.37,30.22,10,2,15,0.00
2013-1-22,33.4,26.9,20.8,15.5,10.3,5.7,67,50,36,30.49,30.35,6,1,8,0.00
2013-1-23,46.1,31.8,22.4,36.1,21.1,11.7,88,65,48,30.41,30.19,3,0,4,0.00
2013-1-24,36.7,32.6,27.7,31.7,17.5,10.5,93,55,40,30.53,30.26,12,4,20,0.00
2013-1-25,36.8,33.1,28.7,34.9,28.4,13.9,96,84,45,30.29,30.08,6,1,9,0.29
2013-1-26,48.9,35.9,25.9,34.2,28.7,24.7,97,77,47,30.39,30.28,6,1,9,0.00
2013-1-27,52.5,43.4,31.5,43.9,37.3,28.5,93,80,64,30.35,30.18,12,2,20,0.01
2013-1-28,64.0,57.1,51.2,56.4,50.0,39.2,90,78,60,30.20,30.09,12,4,18,0.07
2013-1-29,70.8,63.8,57.4,63.2,58.8,53.8,91,84,75,30.10,29.51,17,5,34,0.01
2013-1-30,71.0,48.9,34.5,63.0,43.1,24.3,97,81,63,29.98,29.46,19,7,30,1.94
2013-1-31,47.8,36.9,26.7,33.4,25.5,20.5,93,64,42,30.33,29.98,14,6,21,0.01
2013-2-1,30.3,23.4,15.5,20.7,12.1,7.5,78,63,45,30.57,30.33,9,2,15,0.00
2013-2-2,46.7,34.0,22.4,32.5,25.6,15.0,92,72,54,30.37,30.12,12,2,16,0.02
2013-2-3,50.2,40.3,29.9,33.4,29.1,25.1,91,66,41,30.20,30.06,14,3,20,0.00
2013-2-4,56.2,42.7,29.6,39.6,31.6,25.0,87,67,38,30.15,29.93,10,2,16,0.00
2013-2-5,59.1,48.5,36.9,45.0,40.2,33.9,90,75,44,30.09,29.95,9,2,12,0.00
2013-2-6,59.3,45.6,33.9,36.0,32.5,26.6,95,64,31,30.27,30.09,7,1,10,0.00
2013-2-7,66.2,55.0,44.5,49.9,41.9,29.6,87,62,53,30.11,29.89,7,1,15,0.04
2013-2-8,53.0,42.5,34.3,50.3,37.0,28.5,95,81,69,30.36,29.90,10,4,17,0.28
2013-2-9,52.0,41.7,32.1,33.5,30.1,27.0,83,65,44,30.40,30.11,9,2,14,0.00
2013-2-10,56.3,52.6,47.0,55.0,45.1,33.4,96,77,54,30.11,29.79,12,4,21,0.66
2013-2-11,56.8,47.4,38.3,54.5,35.1,27.0,93,64,38,30.19,29.93,10,3,14,0.00
2013-2-12,51.5,43.5,31.0,37.1,32.9,29.5,96,69,45,30.19,29.83,6,1,10,0.01
2013-2-13,42.6,39.3,36.3,38.0,36.5,34.2,95,90,78,30.03,29.78,9,2,13,0.23
2013-2-14,59.9,46.1,33.8,40.7,34.0,30.8,95,67,35,30.05,29.98,12,3,18,0.00
2013-2-15,53.4,42.1,30.0,36.9,28.8,17.4,84,61,33,30.22,30.04,10,2,14,0.00
2013-2-16,41.4,31.3,23.7,22.2,17.1,11.8,82,58,33,30.27,30.19,10,2,15,0.00
2013-2-17,48.6,34.9,21.2,24.1,20.0,15.1,84,57,30,30.31,30.14,7,1,12,0.00
2013-2-18,60.5,49.2,38.1,46.7,35.1,23.5,92,60,40,30.15,29.80,17,6,28,0.60
2013-2-19,48.7,39.6,31.2,47.1,27.3,16.0,94,63,40,30.29,29.89,15,5,20,0.04
2013-2-20,34.7,30.0,24.7,18.8,16.2,14.0,68,56,46,30.40,30.26,7,2,12,0.00
2013-2-21,41.5,34.3,28.0,40.3,27.0,18.4,96,75,50,30.29,29.84,10,3,16,1.04
2013-2-22,52.4,43.7,37.0,44.5,39.6,34.1,97,86,66,30.08,29.87,10,2,13,0.01
2013-2-23,50.5,38.0,28.0,34.0,29.4,25.4,92,73,46,30.08,29.97,8,1,12,0.00
2013-2-24,54.9,40.7,26.7,28.4,25.8,23.8,94,60,31,30.17,30.00,6,1,12,0.00
2013-2-25,62.6,50.2,38.8,46.9,31.8,24.3,88,51,26,30.02,29.42,13,4,20,0.03
2013-2-26,51.4,44.9,38.6,48.0,41.0,33.7,96,86,68,29.76,29.38,13,5,21,0.47
2013-2-27,39.7,38.3,37.3,34.1,31.9,29.1,83,77,71,29.95,29.77,13,7,18,0.00
2013-2-28,38.6,36.3,33.6,31.7,29.1,27.1,87,75,65,30.11,29.93,10,3,15,0.00
2013-3-1,37.3,33.9,32.0,33.0,31.0,29.8,95,89,79,30.14,30.08,8,3,12,0.03
2013-3-2,33.4,30.9,29.2,30.6,27.1,23.7,94,86,77,30.25,30.11,7,3,13,0.02
2013-3-3,42.9,33.9,23.4,28.2,21.3,16.8,82,62,36,30.24,30.12,9,1,13,0.01
2013-3-4,62.0,48.5,33.2,42.7,29.5,22.2,80,50,33,30.14,29.78,12,3,20,0.00
2013-3-5,58.3,45.2,34.1,52.2,39.0,19.5,96,80,54,30.12,29.75,16,5,23,1.00
2013-3-6,42.9,36.2,29.4,28.0,25.7,23.3,86,66,52,30.36,30.12,12,4,17,0.00
2013-3-7,48.2,36.2,25.2,31.2,27.6,23.2,94,73,47,30.44,30.34,6,1,10,0.00
2013-3-8,59.9,43.7,28.4,31.6,27.5,24.3,90,58,27,30.46,30.26,7,2,12,0.00
2013-3-9,67.4,53.8,43.2,37.5,32.2,27.9,69,45,27,30.26,29.97,9,1,15,0.00
2013-3-10,67.6,59.5,52.2,54.8,45.2,35.8,97,62,40,30.00,29.75,16,4,25,1.56
2013-3-11,52.1,42.8,37.9,51.0,38.4,31.0,97,85,68,30.04,29.79,15,5,21,0.92
2013-3-12,52.6,40.9,28.4,33.2,29.3,24.6,95,67,37,30.19,30.04,11,2,17,0.00
2013-3-13,46.4,39.5,31.9,30.4,24.5,20.3,73,56,36,30.44,30.18,12,3,17,0.00
2013-3-14,50.6,38.5,23.7,26.7,23.7,20.8,93,59,34,30.46,30.20,5,1,8,0.00
2013-3-15,76.2,59.2,40.6,49.2,40.6,24.3,69,52,34,30.20,29.87,13,4,20,0.00
2013-3-16,74.3,64.5,53.3,53.2,48.9,43.4,73,58,46,29.95,29.83,14,5,20,0.00
2013-3-17,53.2,48.9,43.8,48.3,44.0,39.3,94,83,70,29.98,29.73,9,3,14,0.00
2013-3-18,64.5,53.8,41.1,58.7,49.7,39.2,96,86,74,30.04,29.67,11,3,17,1.17
2013-3-19,55.9,45.3,34.1,39.2,27.0,14.7,97,57,22,30.22,30.04,12,2,17,0.00
2013-3-20,51.7,40.6,31.0,32.8,27.6,20.0,86,61,41,30.23,30.08,15,3,22,0.00
2013-3-21,47.0,35.4,23.0,21.1,18.0,13.2,84,52,29,30.15,29.99,8,1,10,0.00
2013-3-22,47.0,41.3,35.8,37.1,25.1,19.3,78,52,45,30.05,29.96,6,2,10,0.00
2013-3-23,55.1,47.3,42.4,46.5,40.1,32.0,94,76,64,30.00,29.73,9,2,13,0.17
2013-3-24,50.8,44.3,35.2,50.0,40.8,26.8,100,88,70,29.85,29.48,23,6,38,0.34
2013-3-25,36.8,34.1,32.5,30.1,27.0,25.0,90,75,64,30.21,29.84,16,7,22,0.00
2013-3-26,42.8,35.5,29.6,32.4,27.2,23.5,92,73,49,30.39,30.21,9,3,13,0.01
2013-3-27,54.9,39.6,24.2,33.5,26.9,22.3,95,65,33,30.45,30.34,9,1,13,0.00
2013-3-28,64.6,49.5,36.7,37.0,32.2,25.3,91,57,26,30.40,30.28,6,1,7,0.00
2013-3-29,50.0,47.8,46.6,46.5,40.8,33.4,96,78,59,30.31,30.20,5,1,8,0.12
2013-3-30,53.2,48.6,45.2,53.2,47.4,44.4,100,96,85,30.23,29.95,5,1,8,0.32
2013-3-31,62.9,54.0,45.5,54.8,51.4,43.9,100,92,65,29.98,29.90,6,1,10,0.15
2013-4-1,64.5,51.2,38.0,44.1,37.8,27.8,100,65,37,30.18,29.94,8,2,15,0.00
2013-4-2,48.8,43.0,39.2,31.3,27.0,21.1,68,54,35,30.32,30.17,8,2,13,0.00
2013-4-3,53.4,46.3,37.1,32.2,23.2,18.1,73,42,27,30.32,30.18,12,4,20,0.00
2013-4-4,47.5,42.7,38.3,43.7,37.3,24.3,97,84,41,30.18,30.03,6,2,9,0.55
2013-4-5,70.0,52.5,35.6,46.9,39.3,33.5,100,68,30,30.18,30.06,8,1,12,0.01
2013-4-6,74.0,58.7,39.8,45.2,39.9,35.3,93,56,26,30.14,29.94,10,2,18,0.00
2013-4-7,72.8,64.6,59.2,53.3,48.3,40.5,70,56,43,30.05,29.95,11,3,17,0.00
2013-4-8,77.3,66.7,57.0,57.9,53.7,48.7,77,64,45,30.01,29.89,10,3,22,0.00
2013-4-9,77.2,69.8,63.5,64.9,61.0,54.1,84,74,62,30.06,29.93,8,2,14,0.00
2013-4-10,83.8,74.5,67.8,64.2,61.4,58.8,81,65,47,30.00,29.72,10,3,16,0.00
2013-4-11,75.4,58.8,45.5,63.0,55.9,42.6,100,91,58,29.78,29.62,11,3,15,2.82
2013-4-12,63.6,51.0,38.7,44.2,40.3,35.8,96,70,44,30.02,29.78,15,3,24,0.00
2013-4-13,70.0,54.5,38.9,48.0,38.4,33.8,87,58,29,30.14,29.98,5,1,9,0.02
2013-4-14,72.3,60.5,50.0,52.1,46.9,42.8,84,63,40,29.98,29.81,12,3,25,0.00
2013-4-15,81.7,68.5,56.3,60.3,56.3,52.0,87,67,44,29.97,29.86,6,2,14,0.00
2013-4-16,81.0,71.6,64.9,69.3,64.9,59.5,91,80,65,30.10,29.95,8,2,14,0.00
2013-4-17,86.0,76.0,66.9,69.0,65.2,62.9,93,71,48,30.11,29.90,9,2,16,0.00
2013-4-18,80.8,73.0,49.9,66.8,62.8,48.1,94,72,52,29.90,29.61,13,4,24,1.22
2013-4-19,49.8,44.2,39.3,48.1,36.1,31.4,95,74,55,30.15,29.70,14,4,18,0.08
2013-4-20,66.0,49.5,32.6,40.8,34.6,30.4,96,62,29,30.32,30.14,8,1,12,0.00
2013-4-21,69.2,54.7,39.7,40.0,34.2,27.9,84,51,22,30.40,30.24,10,2,14,0.00
2013-4-22,76.0,60.7,43.8,48.4,43.1,37.3,88,55,30,30.26,30.07,7,1,13,0.00
2013-4-23,73.5,63.8,52.8,57.7,53.6,45.3,85,70,56,30.11,29.93,10,2,17,0.00
2013-4-24,66.7,50.1,38.4,59.8,44.9,36.3,95,83,65,30.32,29.85,7,1,12,0.79
2013-4-25,67.5,49.8,32.0,44.1,37.7,30.4,97,68,33,30.42,30.30,7,0,10,0.00
2013-4-26,58.2,49.7,43.5,50.7,46.2,41.2,96,88,66,30.48,30.26,7,1,12,0.34
2013-4-27,61.8,55.5,49.7,61.8,54.7,48.7,100,97,92,30.36,29.91,10,1,16,1.61
2013-4-28,65.0,58.7,50.2,61.4,54.8,48.8,100,88,71,29.99,29.91,8,2,13,0.01
2013-4-29,77.5,60.8,45.1,56.9,51.8,44.0,100,76,43,30.05,29.90,5,0,8,0.00
2013-4-30,84.6,67.0,50.3,58.1,53.1,48.9,100,66,32,30.01,29.92,7,0,10,0.00
2013-5-1,80.9,68.7,57.5,63.8,57.2,52.2,90,68,46,30.09,29.99,7,1,12,0.00
2013-5-2,78.1,65.0,56.0,63.9,58.2,53.8,95,80,54,30.15,30.03,6,0,9,0.48
2013-5-3,72.3,58.7,41.8,60.5,53.1,40.3,96,83,59,30.04,29.78,12,2,20,1.28
2013-5-4,60.4,47.5,39.0,44.3,40.6,37.4,96,79,46,30.00,29.90,8,2,10,0.32
2013-5-5,63.7,52.2,43.1,49.1,45.4,41.5,95,79,55,29.96,29.85,8,1,12,0.00
2013-5-6,63.6,54.5,50.1,57.8,52.7,47.8,97,93,79,29.94,29.82,5,0,7,0.44
2013-5-7,71.4,61.1,53.7,58.8,55.7,52.4,97,84,57,30.02,29.93,6,0,8,0.00
2013-5-8,81.0,66.0,51.3,61.7,55.6,50.4,100,73,41,30.07,29.99,6,1,10,0.01
2013-5-9,80.9,69.8,58.7,62.8,59.7,56.2,92,72,48,30.09,29.96,11,1,17,0.00
2013-5-10,71.5,65.7,62.3,66.7,62.8,60.3,97,91,76,29.98,29.87,9,1,16,1.82
2013-5-11,71.5,62.9,56.5,62.8,54.6,47.3,96,76,51,30.10,29.94,8,0,13,0.12
2013-5-12,68.6,55.5,43.8,47.5,37.0,28.5,86,54,25,30.22,30.11,7,1,12,0.00
2013-5-13,74.2,56.1,38.3,49.4,41.0,33.4,97,63,27,30.29,30.15,8,1,12,0.00
2013-5-14,85.5,69.6,51.9,59.6,54.2,45.0,85,61,37,30.17,29.99,9,2,15,0.00
2013-5-15,84.0,72.6,60.0,57.9,52.8,43.5,80,53,27,30.10,29.95,11,2,20,0.00
2013-5-16,82.5,72.2,64.9,63.9,59.0,55.8,82,64,47,30.03,29.92,6,1,10,0.00
2013-5-17,68.0,65.5,62.8,66.2,63.2,56.6,100,93,69,30.01,29.91,4,0,12,0.64
2013-5-18,83.7,73.3,65.3,70.4,67.6,65.3,100,84,58,30.02,29.93,6,0,9,0.00
2013-5-19,85.8,77.0,69.6,72.9,69.7,67.9,97,79,58,29.98,29.89,8,2,12,0.00
2013-5-20,85.4,75.9,67.1,72.2,69.0,65.3,96,80,61,29.99,29.86,7,1,13,0.01
2013-5-21,78.5,69.2,63.8,70.3,65.5,61.6,97,89,67,30.01,29.81,9,1,14,1.51
2013-5-22,76.3,67.6,62.1,67.2,63.6,60.6,100,88,70,29.89,29.79,10,2,15,0.34
2013-5-23,78.7,68.1,60.6,60.9,58.2,53.8,95,72,50,30.13,29.89,10,1,15,0.00
2013-5-24,66.0,56.8,51.9,53.8,49.6,46.8,86,77,55,30.34,30.13,9,2,17,0.00
2013-5-25,80.0,63.6,46.8,55.4,49.5,42.8,97,66,30,30.35,30.16,5,0,9,0.00
2013-5-26,86.3,69.1,52.6,59.6,55.8,50.9,97,67,37,30.23,30.10,4,0,8,0.00
2013-5-27,84.0,71.3,56.1,65.1,60.4,54.1,94,71,43,30.12,29.97,10,1,18,0.00
2013-5-28,86.5,75.6,66.9,67.9,61.1,54.8,83,63,36,30.06,29.97,9,2,17,0.00
2013-5-29,87.3,75.2,62.7,69.4,63.9,57.8,90,70,42,30.09,29.97,8,1,15,0.00
2013-5-30,85.3,77.7,72.3,71.8,68.3,66.1,83,73,59,30.07,29.94,9,2,18,0.00
2013-5-31,81.5,74.7,65.4,73.7,69.2,64.0,97,84,73,30.03,29.89,9,2,18,1.10
2013-6-1,76.3,70.3,65.5,70.0,66.8,63.3,97,89,75,29.97,29.79,9,2,16,0.46
2013-6-2,83.5,70.6,63.9,67.2,64.2,59.0,100,82,47,29.96,29.90,8,0,12,0.00
2013-6-3,79.0,67.9,58.3,62.3,59.3,56.9,96,76,50,30.04,29.94,6,1,12,0.00
2013-6-4,83.6,69.8,56.3,63.7,59.5,54.3,93,72,46,30.06,29.96,5,1,7,0.00
2013-6-5,84.3,73.6,65.5,71.4,67.4,62.8,93,82,60,29.98,29.81,6,1,9,0.00
2013-6-6,84.9,73.3,65.8,70.3,67.5,64.5,97,83,58,29.85,29.76,6,0,10,0.48
2013-6-7,81.8,71.3,63.8,67.0,63.4,60.2,90,77,54,29.89,29.76,8,0,12,0.00
2013-6-8,80.8,69.4,57.7,64.0,59.6,54.6,96,74,42,30.01,29.88,8,0,12,0.00
2013-6-9,83.9,69.9,61.3,71.3,65.4,59.3,97,87,63,30.03,29.82,9,1,16,1.09
2013-6-10,85.7,74.3,65.0,72.3,67.5,64.1,100,81,56,29.93,29.84,11,2,20,0.01
2013-6-11,91.7,79.9,66.2,76.3,71.7,65.0,97,78,54,30.01,29.92,7,1,10,0.00
2013-6-12,91.8,82.4,73.1,76.6,73.5,70.5,93,76,56,30.04,29.88,9,2,15,0.00
2013-6-13,89.2,79.9,67.7,75.2,70.0,64.2,89,73,51,29.96,29.85,12,2,17,0.02
2013-6-14,82.5,71.6,59.7,64.5,60.7,56.9,94,71,46,30.06,29.94,9,2,15,0.00
2013-6-15,86.0,73.3,59.7,67.8,63.9,58.3,96,75,49,30.10,29.98,6,0,9,0.00
2013-6-16,84.8,76.1,66.7,73.2,69.2,64.5,93,80,60,30.05,29.95,7,1,12,0.00
2013-6-17,83.8,73.8,68.1,75.6,70.4,66.3,97,89,72,29.98,29.85,15,0,21,0.79
2013-6-18,82.7,73.1,65.9,69.4,67.4,64.8,100,84,57,29.97,29.82,8,1,14,1.02
2013-6-19,88.6,76.3,65.1,70.8,66.6,60.0,97,75,44,30.05,29.95,4,0,9,0.00
2013-6-20,91.0,78.2,65.2,72.3,68.3,63.9,100,75,46,30.14,30.05,5,0,8,0.00
2013-6-21,89.3,78.8,68.2,72.9,69.3,66.5,95,74,53,30.19,30.08,7,1,12,0.00
2013-6-22,88.7,78.7,69.1,71.6,68.8,66.0,92,73,51,30.17,30.05,6,1,12,0.00
2013-6-23,89.0,78.1,67.2,72.5,68.6,64.8,93,74,49,30.13,30.02,6,1,10,0.00
2013-6-24,90.8,79.4,70.8,74.8,71.3,68.5,94,78,50,30.15,30.03,6,0,9,0.00
2013-6-25,89.0,79.8,72.2,76.5,72.6,70.2,94,80,62,30.08,29.93,7,1,10,0.00
2013-6-26,89.3,80.8,71.2,75.3,72.1,68.4,93,76,61,29.98,29.80,12,2,17,0.00
2013-6-27,97.2,81.9,67.6,77.8,72.2,65.8,100,75,41,29.94,29.80,9,1,16,1.57
2013-6-28,89.9,78.1,70.0,73.7,69.2,62.1,94,76,48,29.84,29.68,9,1,13,0.00
2013-6-29,86.7,75.7,63.5,65.8,62.2,58.8,90,65,41,29.74,29.64,9,1,14,0.00
2013-6-30,78.0,68.7,61.1,67.4,63.0,59.0,93,83,62,29.82,29.69,4,0,8,0.01
2013-7-1,75.6,67.7,65.1,66.2,64.4,63.1,95,90,72,29.91,29.79,10,1,15,0.05
2013-7-2,79.2,69.9,63.8,67.1,64.3,62.6,97,84,61,30.03,29.89,8,1,12,0.01
2013-7-3,82.0,70.0,59.4,67.2,63.7,57.9,97,82,56,30.11,30.03,4,0,6,0.00
2013-7-4,75.0,70.1,65.2,70.8,67.1,63.7,97,90,81,30.08,30.00,8,1,12,0.12
2013-7-5,83.7,71.7,65.6,72.1,68.2,64.4,97,89,64,30.10,30.02,7,0,13,1.55
2013-7-6,84.0,73.8,66.0,73.3,69.7,64.5,100,88,63,30.12,29.99,8,1,15,1.46
2013-7-7,88.2,75.0,64.9,74.3,69.4,63.8,100,84,56,30.12,30.03,4,0,8,0.52
2013-7-8,90.5,78.6,69.0,74.7,71.9,67.8,100,81,54,30.16,30.06,6,0,10,0.00
2013-7-9,91.1,80.9,70.4,76.8,73.3,69.2,97,79,56,30.13,30.00,7,1,12,0.00
2013-7-10,90.0,81.6,74.4,77.7,74.1,71.6,91,79,64,30.03,29.88,9,1,12,0.00
2013-7-11,89.7,78.9,68.6,76.3,70.7,62.1,97,78,53,29.98,29.92,7,1,17,0.00
2013-7-12,82.5,72.2,61.4,66.8,62.2,58.4,94,73,46,30.04,29.97,9,2,16,0.00
2013-7-13,83.9,72.0,59.3,66.2,62.5,57.6,96,74,48,30.05,29.98,8,1,12,0.00
2013-7-14,83.7,73.9,67.9,74.7,69.7,64.9,97,87,67,30.12,30.01,6,1,12,0.08
2013-7-15,88.1,78.0,71.0,74.6,71.6,69.3,100,82,61,30.23,30.12,6,1,13,0.00
2013-7-16,91.5,80.3,69.8,74.6,71.8,68.3,96,77,52,30.30,30.21,5,1,9,0.00
2013-7-17,93.0,82.1,71.3,77.1,73.7,70.1,100,78,54,30.31,30.17,7,1,12,0.00
2013-7-18,90.6,77.0,70.5,80.0,73.4,69.6,97,89,63,30.19,30.04,9,1,14,0.31
2013-7-19,91.4,78.1,68.0,75.5,71.5,67.2,100,82,55,30.08,29.93,7,1,12,0.01
2013-7-20,89.5,79.2,70.1,75.5,71.9,68.5,95,79,57,29.98,29.83,7,1,12,0.12
2013-7-21,88.5,75.3,70.2,76.3,71.6,69.0,100,89,61,29.97,29.88,11,1,18,0.30
2013-7-22,81.2,73.5,69.1,75.3,71.2,68.2,100,93,81,29.94,29.84,9,2,14,0.51
2013-7-23,83.1,75.4,68.9,73.6,71.3,66.6,100,88,68,29.94,29.82,14,1,26,0.18
2013-7-24,87.5,75.0,67.7,74.1,68.4,63.4,95,81,60,29.97,29.83,8,1,12,0.10
2013-7-25,81.7,70.9,61.1,65.7,62.7,59.4,96,77,52,30.07,29.95,7,1,13,0.00
2013-7-26,83.3,71.6,60.2,67.2,63.5,59.1,100,78,50,30.08,29.92,7,0,12,0.00
2013-7-27,84.1,74.2,66.8,69.6,66.6,62.9,96,79,57,30.00,29.88,8,1,12,0.01
2013-7-28,76.1,68.1,59.7,63.2,58.4,52.5,94,73,47,30.10,29.97,6,1,12,0.00
2013-7-29,76.8,67.9,59.2,66.4,62.2,57.8,97,83,60,30.19,30.08,3,0,6,0.00
2013-7-30,75.8,69.4,62.4,71.4,66.5,60.0,96,91,75,30.17,30.05,5,0,7,0.19
2013-7-31,84.9,72.8,69.7,78.1,71.5,68.5,100,96,75,30.06,29.93,7,0,12,0.96
2013-8-1,83.5,74.3,67.4,71.7,69.0,66.7,100,85,61,30.06,29.96,6,1,12,0.01
2013-8-2,86.9,74.0,61.9,69.7,65.7,60.6,100,78,46,30.05,29.97,5,0,8,0.01
2013-8-3,79.2,72.8,68.8,74.5,70.4,66.5,100,92,84,30.07,29.95,8,1,14,0.34
2013-8-4,85.4,75.0,67.7,72.5,68.6,63.6,100,82,55,30.12,30.04,9,1,12,0.00
2013-8-5,74.4,70.1,66.6,69.4,66.1,62.4,96,87,73,30.10,29.94,3,0,6,0.05
2013-8-6,81.4,74.7,69.5,75.8,72.1,68.3,100,92,79,29.99,29.90,5,0,7,0.02
2013-8-7,88.0,77.0,71.2,79.5,73.9,70.0,100,91,73,29.97,29.86,10,0,16,0.38
2013-8-8,89.5,78.6,72.3,78.8,74.7,71.1,97,88,67,29.97,29.89,6,0,12,0.06
2013-8-9,91.9,79.0,72.9,78.9,74.8,71.8,100,88,61,30.03,29.92,6,0,10,0.04
2013-8-10,84.3,77.0,72.3,75.0,72.4,69.5,97,86,63,30.13,30.02,8,0,10,0.01
2013-8-11,84.0,76.9,71.5,76.2,73.4,70.6,100,89,75,30.13,30.04,0,0,0,0.26
2013-8-12,82.9,74.7,70.1,78.1,72.8,69.2,100,94,79,30.09,29.92,7,0,13,1.68
2013-8-13,85.5,75.1,69.1,73.1,70.2,66.5,100,86,62,30.01,29.93,5,1,9,0.06
2013-8-14,75.7,67.3,59.2,66.4,58.3,55.5,90,74,51,30.11,30.01,8,3,16,0.01
2013-8-15,79.0,67.3,54.6,63.1,59.0,53.1,96,76,55,30.11,30.01,6,1,12,0.00
2013-8-16,77.2,69.8,62.9,68.5,64.6,59.4,95,84,71,30.09,30.02,6,1,12,0.01
2013-8-17,78.6,70.6,66.4,68.8,66.7,65.0,97,88,70,30.13,30.05,6,0,9,0.03
2013-8-18,80.0,70.5,64.1,69.0,66.0,62.9,97,87,67,30.16,30.07,3,0,6,0.00
2013-8-19,84.9,72.9,62.9,72.1,67.5,62.1,100,85,58,30.14,30.03,4,0,9,0.00
2013-8-20,87.5,75.5,65.6,75.0,70.4,64.7,100,86,62,30.12,30.03,7,0,10,0.00
2013-8-21,90.8,78.0,67.7,75.5,71.3,66.8,100,82,52,30.16,30.06,6,0,8,0.00
2013-8-22,90.8,79.3,68.8,76.2,72.6,67.8,100,81,54,30.14,30.02,5,0,10,0.00
2013-8-23,90.5,78.1,68.9,75.3,71.5,67.8,97,82,54,30.09,29.99,6,0,10,0.00
2013-8-24,88.5,77.6,68.2,74.4,70.5,66.8,96,80,56,30.18,30.06,8,1,12,0.00
2013-8-25,87.6,77.1,69.3,74.6,70.7,66.7,94,82,60,30.29,30.18,5,0,9,0.00
2013-8-26,87.3,76.0,66.3,72.6,68.6,64.7,95,79,54,30.28,30.13,5,0,9,0.00
2013-8-27,87.6,75.8,64.9,72.4,68.1,62.7,94,78,56,30.16,30.05,7,1,10,0.00
2013-8-28,89.8,77.3,67.0,73.3,70.0,65.8,100,80,51,30.08,30.00,7,1,12,0.00
2013-8-29,94.4,80.2,67.7,75.3,71.6,66.5,97,78,47,30.06,29.96,5,0,9,0.00
2013-8-30,93.3,80.9,70.6,75.3,72.5,69.5,97,78,49,30.00,29.89,6,0,8,0.00
2013-8-31,93.2,81.4,71.7,75.5,72.8,69.7,94,77,52,29.93,29.81,7,1,12,0.00
2013-9-1,77.5,72.4,66.5,72.5,69.8,65.0,97,92,82,29.95,29.80,11,1,20,1.33
2013-9-2,87.2,75.7,67.8,76.9,72.1,67.4,100,89,70,29.92,29.84,7,0,10,0.00
2013-9-3,85.9,73.8,64.9,70.7,66.0,62.1,96,79,47,30.05,29.91,6,1,12,0.00
2013-9-4,84.3,71.5,62.5,67.6,63.3,60.3,96,78,47,30.15,30.04,5,1,9,0.00
2013-9-5,83.9,70.7,59.6,67.9,63.8,58.5,100,81,52,30.19,30.12,7,1,12,0.00
2013-9-6,88.7,73.9,61.6,70.3,66.1,60.7,100,80,47,30.17,30.06,4,0,8,0.00
2013-9-7,88.3,75.1,61.9,71.8,67.7,60.7,100,80,52,30.09,29.98,7,1,9,0.00
2013-9-8,92.3,78.1,66.6,75.2,70.4,65.7,100,80,49,30.01,29.91,4,0,7,0.00
2013-9-9,90.5,79.0,71.6,76.3,72.5,69.6,96,82,55,30.05,29.95,7,0,9,0.05
2013-9-10,85.6,77.2,71.6,77.6,72.7,69.8,96,86,69,30.17,30.04,4,0,8,0.49
2013-9-11,87.4,76.2,69.6,76.9,72.1,68.4,97,88,65,30.19,30.07,5,0,8,0.08
2013-9-12,89.3,76.3,69.8,75.2,71.4,68.9,97,86,58,30.07,29.93,8,1,12,0.02
2013-9-13,76.9,68.1,57.9,69.5,59.4,52.8,97,76,47,30.05,29.97,10,2,16,0.00
2013-9-14,73.1,61.2,50.2,56.4,52.4,48.3,94,75,48,30.13,30.04,10,1,15,0.00
2013-9-15,80.2,64.6,50.2,61.9,56.1,48.8,100,77,44,30.13,30.07,6,1,8,0.00
2013-9-16,81.8,68.3,57.0,67.7,62.2,55.9,100,83,54,30.18,30.09,7,1,12,0.00
2013-9-17,83.4,71.6,62.5,68.8,65.4,61.6,97,82,58,30.19,30.08,4,1,7,0.00
2013-9-18,81.2,72.4,67.0,71.8,68.1,65.5,96,87,71,30.15,30.05,7,1,12,0.00
2013-9-19,86.0,74.7,66.3,71.8,68.3,65.1,97,82,60,30.13,29.98,8,1,12,0.00
2013-9-20,81.2,72.4,66.9,73.2,68.5,64.2,100,88,69,30.00,29.81,7,1,12,1.49
2013-9-21,74.8,65.3,55.3,66.3,58.3,52.2,100,80,49,29.91,29.79,9,1,16,0.08
2013-9-22,74.8,61.7,50.0,57.4,53.7,48.6,100,78,48,29.98,29.89,10,1,18,0.00
2013-9-23,79.3,64.0,50.8,62.5,56.7,49.7,96,79,49,30.01,29.93,4,1,8,0.00
2013-9-24,79.0,66.7,57.0,70.2,63.5,55.6,100,90,68,29.97,29.83,9,0,15,2.06
2013-9-25,80.2,68.8,62.7,70.2,65.8,62.6,100,91,65,29.87,29.80,6,0,12,0.01
2013-9-26,80.2,67.8,59.9,68.9,64.1,59.4,100,89,65,30.02,29.87,6,0,10,0.01
2013-9-27,83.7,68.5,57.4,67.1,62.3,56.6,100,83,50,30.12,30.02,4,0,8,0.00
2013-9-28,79.1,68.5,60.2,63.0,59.9,55.5,95,76,48,30.17,30.05,8,1,16,0.00
2013-9-29,63.7,62.4,61.6,62.6,60.2,57.8,100,93,84,30.08,29.99,4,0,8,0.83
2013-9-30,69.2,65.2,62.5,64.5,63.1,61.8,100,93,81,30.04,29.97,7,1,14,0.01
2013-10-1,77.1,71.2,62.8,71.5,68.8,61.6,100,92,80,30.08,30.00,5,0,12,0.02
2013-10-2,79.3,71.6,66.1,70.9,68.1,66.1,100,89,69,30.11,30.04,6,0,12,0.01
2013-10-3,82.4,73.0,66.0,69.3,66.7,64.0,100,82,56,30.08,29.98,7,1,12,0.00
2013-10-4,83.9,72.6,64.2,72.3,68.0,63.3,100,86,65,30.09,30.00,6,1,10,0.00
2013-10-5,85.3,74.7,68.4,75.0,70.2,66.9,96,87,63,30.04,29.88,9,1,14,0.06
2013-10-6,62.8,58.6,52.0,56.5,53.3,48.9,97,83,73,29.98,29.85,4,1,8,0.07
2013-10-7,66.0,54.8,45.2,52.4,48.9,44.1,100,82,57,30.14,29.96,6,1,12,0.00
2013-10-8,68.8,56.8,46.3,53.1,49.5,45.2,97,79,51,30.19,30.10,9,2,16,0.00
2013-10-9,77.6,63.4,51.7,65.9,58.3,49.9,97,85,64,30.18,30.10,5,0,9,0.00
2013-10-10,76.5,66.0,57.7,65.9,61.6,57.1,100,87,64,30.17,30.03,4,0,6,0.00
2013-10-11,80.5,65.4,54.6,65.2,59.5,54.1,100,84,48,30.09,29.99,4,0,7,0.00
2013-10-12,76.0,65.0,54.6,68.4,61.4,53.6,100,89,70,30.15,30.02,4,0,7,0.00
2013-10-13,76.8,66.9,59.7,66.4,62.1,53.1,100,85,67,30.27,30.14,6,1,12,0.00
2013-10-14,80.2,64.8,53.0,64.4,57.3,49.5,91,78,50,30.27,30.10,6,1,10,0.00
2013-10-15,71.0,66.3,63.5,66.6,63.1,61.1,97,90,77,30.10,29.97,8,1,13,0.05
2013-10-16,64.6,59.7,55.9,64.5,58.9,55.1,100,97,93,30.02,29.95,5,0,12,0.27
2013-10-17,64.1,55.7,47.3,56.6,52.0,46.1,100,88,64,30.04,29.94,7,0,12,0.07
2013-10-18,67.9,53.6,42.4,52.9,48.1,41.6,100,84,51,30.11,29.98,5,0,8,0.00
2013-10-19,53.6,49.4,39.6,51.6,46.1,38.6,96,89,71,30.10,29.92,8,0,12,0.13
2013-10-20,63.7,48.0,36.2,46.9,41.3,35.2,100,81,45,30.15,30.04,6,0,9,0.00
2013-10-21,69.0,53.1,38.8,53.4,45.9,37.7,97,79,44,30.10,29.99,10,1,14,0.03
2013-10-22,61.4,53.1,46.9,52.7,45.8,40.4,95,78,47,30.08,29.89,8,1,14,0.15
2013-10-23,53.9,46.8,41.7,45.3,39.3,35.1,93,76,51,30.16,29.92,8,1,15,0.00
2013-10-24,56.2,46.4,36.0,43.2,39.0,32.1,94,77,49,30.41,30.14,8,0,14,0.00
2013-10-25,50.7,38.3,28.9,33.9,30.1,26.3,94,75,41,30.56,30.36,5,1,12,0.00
2013-10-26,58.9,45.5,30.1,47.4,37.2,28.6,95,75,49,30.36,30.11,5,1,15,0.00
2013-10-27,62.7,55.7,49.2,56.7,51.8,45.4,95,87,75,30.15,30.05,3,0,6,0.00
2013-10-28,67.8,59.4,51.0,57.9,55.5,49.6,100,88,61,30.26,30.08,3,0,9,0.02
2013-10-29,68.2,58.4,47.2,62.9,56.1,46.3,100,92,81,30.29,30.14,4,0,9,0.00
2013-10-30,73.4,67.1,61.5,65.2,61.3,58.7,92,82,73,30.20,30.02,5,1,16,0.00
2013-10-31,68.5,64.9,59.6,66.2,62.2,56.0,97,91,77,30.02,29.55,12,4,27,1.35
2013-11-1,69.6,58.5,49.0,56.0,49.0,42.1,97,74,38,29.87,29.72,8,2,20,0.00
2013-11-2,60.8,51.2,42.2,46.3,43.3,38.9,91,76,53,30.22,29.87,6,1,13,0.00
2013-11-3,59.4,44.9,33.8,43.2,37.1,32.4,97,77,40,30.35,30.21,4,0,8,0.00
2013-11-4,62.6,51.4,40.1,46.6,42.3,36.7,91,73,49,30.35,30.25,11,1,21,0.00
2013-11-5,70.4,58.0,48.8,52.7,45.8,40.6,90,65,45,30.37,30.20,5,1,15,0.00
2013-11-6,64.4,57.1,43.9,59.5,51.4,42.3,97,82,62,30.22,30.03,8,2,21,0.15
2013-11-7,55.2,43.6,33.9,42.3,34.8,28.0,95,74,40,30.40,30.22,6,1,15,0.00
2013-11-8,58.9,43.7,30.2,40.3,33.9,28.9,97,73,38,30.44,30.27,2,0,8,0.00
2013-11-9,59.5,52.8,46.7,42.1,38.7,34.3,83,61,40,30.28,30.21,6,1,13,0.00
2013-11-10,51.4,43.1,38.6,41.3,37.9,31.8,96,83,47,30.37,30.27,2,0,14,0.00
2013-11-11,68.6,50.6,31.9,43.8,35.1,27.7,96,62,23,30.35,30.18,2,0,8,0.00
2013-11-12,54.9,38.7,28.6,44.0,28.3,19.5,91,68,43,30.69,30.23,14,4,24,0.03
2013-11-13,46.6,33.3,24.2,26.9,22.9,19.4,91,69,37,30.76,30.48,2,0,7,0.00
2013-11-14,56.4,39.6,24.4,27.6,22.2,17.8,88,55,24,30.48,30.21,8,1,13,0.00
2013-11-15,53.7,46.0,34.4,50.4,40.3,21.9,92,81,50,30.22,30.07,3,0,12,0.03
2013-11-16,64.7,58.7,52.8,61.3,56.6,50.3,96,93,88,30.10,29.90,10,3,22,0.03
2013-11-17,70.4,65.0,54.7,67.3,61.5,41.3,97,89,59,29.97,29.69,13,5,26,0.77
2013-11-18,63.6,51.1,39.8,44.2,36.9,28.0,95,61,34,30.29,29.97,5,1,12,0.01
2013-11-19,48.8,42.1,36.6,31.4,29.7,27.4,80,62,44,30.34,30.21,7,2,14,0.00
2013-11-20,62.0,46.3,30.3,37.6,33.0,28.3,94,63,35,30.25,30.13,7,1,16,0.00
2013-11-21,66.1,55.5,44.8,56.1,48.6,37.4,96,78,59,30.26,30.17,7,2,17,0.16
2013-11-22,58.8,52.6,43.0,58.8,50.5,39.1,100,92,86,30.40,30.19,10,3,17,0.15
2013-11-23,44.6,38.6,26.2,39.1,28.1,14.6,89,68,32,30.62,30.38,11,4,20,0.00
2013-11-24,33.8,27.6,21.2,18.3,15.2,13.2,73,60,43,30.72,30.49,14,3,17,0.00
2013-11-25,41.0,33.5,29.8,32.6,24.4,15.2,95,71,42,30.49,30.20,6,1,13,0.14
2013-11-26,36.9,35.2,33.6,35.1,32.7,25.5,97,91,71,30.21,29.97,8,2,20,0.06
2013-11-27,33.6,26.7,18.8,26.1,14.4,10.0,85,61,41,30.43,30.10,9,3,18,0.00
2013-11-28,43.9,29.3,16.8,22.0,17.9,13.5,90,65,37,30.53,30.41,5,1,11,0.00
2013-11-29,52.8,35.5,22.3,29.4,25.7,20.1,94,71,38,30.62,30.48,3,0,8,0.00
2013-11-30,57.7,42.0,26.3,32.2,26.9,21.1,93,60,26,30.48,30.25,7,1,15,0.00
2013-12-1,54.8,49.5,46.5,40.6,36.1,29.6,78,60,50,30.25,29.96,4,1,10,0.00
2013-12-2,58.3,52.1,46.6,50.8,46.9,40.2,92,83,75,29.96,29.74,3,0,8,0.00
2013-12-3,62.2,55.2,50.4,54.1,52.2,49.2,100,90,72,29.80,29.73,7,1,12,0.00
2013-12-4,72.8,66.2,55.0,62.7,60.4,54.2,100,82,65,29.84,29.71,13,4,27,0.00
2013-12-5,67.7,48.7,32.5,64.4,46.3,31.1,96,92,84,30.18,29.84,10,3,16,0.58
2013-12-6,32.9,30.4,26.0,31.9,29.0,24.3,96,94,93,30.47,30.11,10,2,16,0.34
2013-12-7,26.9,25.0,22.5,25.4,23.1,20.4,94,92,90,30.63,30.38,0,0,0,0.00
2013-12-8,34.7,32.2,26.9,34.7,31.5,25.4,100,97,95,30.38,30.08,5,1,9,0.13
2013-12-9,33.2,31.3,29.4,32.4,28.0,21.8,97,88,73,30.32,30.15,8,2,14,0.01
2013-12-10,39.2,29.7,22.7,27.7,23.3,19.4,93,78,62,30.45,30.22,9,2,12,0.01
2013-12-11,43.9,30.2,19.5,32.1,24.6,17.8,96,81,55,30.62,30.43,10,2,14,0.01
2013-12-12,38.4,27.1,17.2,21.0,17.6,14.0,93,70,40,30.66,30.44,5,1,8,0.00
2013-12-13,45.1,33.3,19.0,34.7,22.7,16.7,92,68,39,30.43,29.99,5,0,9,0.15
2013-12-14,43.7,38.7,33.9,42.8,36.6,30.4,97,92,87,30.11,29.81,10,3,14,0.57
2013-12-15,34.1,31.8,28.9,30.6,28.0,26.4,92,86,80,30.28,30.11,8,2,14,0.01
2013-12-16,56.0,42.0,29.9,38.3,33.4,27.4,92,73,47,30.22,30.11,11,3,17,0.00
2013-12-17,53.7,41.6,29.1,39.7,32.9,25.5,92,73,44,30.34,30.14,12,2,17,0.00
2013-12-18,53.3,39.2,22.8,32.2,26.3,21.1,95,64,32,30.41,30.17,7,1,13,0.00
2013-12-19,59.1,52.3,42.8,49.2,42.3,32.2,76,69,59,30.20,30.01,11,4,20,0.00
2013-12-20,63.7,59.9,56.6,60.8,55.6,47.3,95,86,71,30.01,29.86,13,4,23,0.21
2013-12-21,74.3,67.0,59.9,66.0,62.1,58.3,97,85,71,29.85,29.51,25,6,43,0.96
2013-12-22,60.8,49.4,37.4,58.9,46.8,33.3,97,91,81,30.22,29.64,11,3,20,0.01
2013-12-23,37.3,33.7,26.9,32.9,27.7,23.5,90,79,64,30.52,30.22,7,2,13,0.00
2013-12-24,31.1,25.9,21.3,24.1,16.9,11.9,88,70,46,30.65,30.48,6,1,12,0.00
2013-12-25,45.2,31.2,17.9,25.2,19.5,14.9,92,65,35,30.48,30.34,4,1,9,0.00
2013-12-26,46.2,33.8,24.8,31.7,25.7,21.9,95,74,40,30.48,30.36,5,0,8,0.00
2013-12-27,52.7,35.7,21.9,31.7,26.4,19.9,94,72,41,30.52,30.39,6,0,8,0.00
2013-12-28,45.6,36.4,26.7,39.0,31.8,24.3,96,84,61,30.39,29.99,2,0,6,0.15
2013-12-29,53.2,42.0,32.0,42.9,37.8,27.0,100,86,66,30.22,29.96,10,2,15,0.20
2013-12-30,32.5,29.5,24.6,27.3,24.7,22.1,90,82,76,30.38,30.21,6,1,12,0.00
2013-12-31,45.4,31.4,19.8,28.5,24.1,18.1,94,76,50,30.50,30.36,5,0,8,0.00
2014-1-1,51.7,38.1,23.1,40.3,29.4,21.5,96,73,43,30.37,29.97,7,1,12,0.06
2014-1-2,44.4,30.6,18.5,42.5,25.6,12.4,95,82,66,30.47,29.91,12,4,24,0.14